createdAt,value
2019-02-20T00:00:51.335Z,5.84
2019-02-20T00:03:19.585Z,5.86
2019-02-20T00:05:47.879Z,5.79
2019-02-20T00:08:16.162Z,5.84
2019-02-20T00:10:44.430Z,5.86
2019-02-20T00:13:12.829Z,5.81
2019-02-20T00:15:41.082Z,5.81
2019-02-20T00:18:09.442Z,5.82
2019-02-20T00:20:37.720Z,5.82
2019-02-20T00:23:06.010Z,5.82
2019-02-20T00:25:34.260Z,5.81
2019-02-20T00:28:02.546Z,5.84
2019-02-20T00:30:31.154Z,5.81
2019-02-20T00:32:59.484Z,5.78
2019-02-20T00:35:27.780Z,5.77
2019-02-20T00:37:56.061Z,5.77
2019-02-20T00:40:24.365Z,5.73
2019-02-20T00:42:52.631Z,5.73
2019-02-20T00:45:22.537Z,5.70
2019-02-20T00:47:55.011Z,5.66
2019-02-20T00:50:24.956Z,5.66
2019-02-20T00:52:55.030Z,5.69
2019-02-20T00:55:23.324Z,5.68
2019-02-20T00:57:51.580Z,5.70
2019-02-20T01:00:20.080Z,5.70
2019-02-20T01:02:48.383Z,5.67
2019-02-20T01:05:17.128Z,5.67
2019-02-20T01:07:45.453Z,5.71
2019-02-20T01:10:13.707Z,5.69
2019-02-20T01:12:42.106Z,5.72
2019-02-20T01:15:11.205Z,5.72
2019-02-20T01:17:39.478Z,5.72
2019-02-20T01:20:09.706Z,5.69
2019-02-20T01:22:37.972Z,5.73
2019-02-20T01:25:06.814Z,5.73
2019-02-20T01:27:35.079Z,5.73
2019-02-20T01:30:04.177Z,5.75
2019-02-20T01:32:32.617Z,5.71
2019-02-20T01:35:00.917Z,5.71
2019-02-20T01:37:29.176Z,5.76
2019-02-20T01:39:57.460Z,5.78
2019-02-20T01:42:25.713Z,5.77
2019-02-20T01:44:54.024Z,5.77
2019-02-20T01:47:22.340Z,5.75
2019-02-20T01:49:50.643Z,5.81
2019-02-20T01:52:18.939Z,5.81
2019-02-20T01:54:47.208Z,5.84
2019-02-20T01:57:15.513Z,5.83
2019-02-20T01:59:43.773Z,5.83
2019-02-20T02:02:12.351Z,5.86
2019-02-20T02:04:40.633Z,5.86
2019-02-20T02:07:08.908Z,5.80
2019-02-20T02:09:37.216Z,5.83
2019-02-20T02:12:05.561Z,5.83
2019-02-20T02:14:33.810Z,5.85
2019-02-20T02:17:02.056Z,5.89
2019-02-20T02:19:30.366Z,5.91
2019-02-20T02:21:58.609Z,5.90
2019-02-20T02:24:26.897Z,5.92
2019-02-20T02:26:55.155Z,5.94
2019-02-20T02:29:23.477Z,5.92
2019-02-20T02:31:51.728Z,5.92
2019-02-20T02:34:20.048Z,5.92
2019-02-20T02:36:48.326Z,5.94
2019-02-20T02:39:16.564Z,5.89
2019-02-20T02:41:45.000Z,5.92
2019-02-20T02:44:13.243Z,5.92
2019-02-20T02:46:41.497Z,5.91
2019-02-20T02:49:10.342Z,5.91
2019-02-20T02:51:38.601Z,5.90
2019-02-20T02:54:06.939Z,5.88
2019-02-20T02:56:35.171Z,5.88
2019-02-20T02:59:03.461Z,5.87
2019-02-20T03:01:31.712Z,5.90
2019-02-20T03:03:59.987Z,5.90
2019-02-20T03:06:28.298Z,5.87
2019-02-20T03:08:56.566Z,5.87
2019-02-20T03:11:24.860Z,5.92
2019-02-20T03:13:53.195Z,5.93
2019-02-20T03:16:21.453Z,5.88
2019-02-20T03:18:49.771Z,5.90
2019-02-20T03:21:18.082Z,5.91
2019-02-20T03:23:46.721Z,5.92
2019-02-20T03:26:15.018Z,5.89
2019-02-20T03:28:43.268Z,5.93
2019-02-20T03:31:11.611Z,5.93
2019-02-20T03:33:39.860Z,5.92
2019-02-20T03:36:08.115Z,5.91
2019-02-20T03:38:36.560Z,5.91
2019-02-20T03:41:04.953Z,5.92
2019-02-20T03:43:33.246Z,5.90
2019-02-20T03:46:01.515Z,5.90
2019-02-20T03:48:29.772Z,5.90
2019-02-20T03:50:58.095Z,5.92
2019-02-20T03:53:26.335Z,5.96
2019-02-20T03:55:54.740Z,5.92
2019-02-20T03:58:22.998Z,5.92
2019-02-20T04:00:51.249Z,5.93
2019-02-20T04:03:19.557Z,5.90
2019-02-20T04:05:47.839Z,5.90
2019-02-20T04:08:16.201Z,5.93
2019-02-20T04:10:44.501Z,5.95
2019-02-20T04:13:12.802Z,5.98
2019-02-20T04:15:41.097Z,5.98
2019-02-20T04:18:10.859Z,5.98
2019-02-20T04:20:39.358Z,6.02
2019-02-20T04:23:08.426Z,6.02
2019-02-20T04:25:36.735Z,6.03
2019-02-20T04:28:04.987Z,6.04
2019-02-20T04:30:33.329Z,6.02
2019-02-20T04:33:01.569Z,6.01
2019-02-20T04:35:29.827Z,6.01
2019-02-20T04:37:58.223Z,6.05
2019-02-20T04:40:26.515Z,6.07
2019-02-20T04:42:54.770Z,6.08
2019-02-20T04:45:23.049Z,6.06
2019-02-20T04:47:51.295Z,6.07
2019-02-20T04:50:19.579Z,6.06
2019-02-20T04:52:47.837Z,6.07
2019-02-20T04:55:16.109Z,6.06
2019-02-20T04:57:44.425Z,6.06
2019-02-20T05:00:13.917Z,6.07
2019-02-20T05:02:42.200Z,6.07
2019-02-20T05:05:10.532Z,6.08
2019-02-20T05:07:38.829Z,6.11
2019-02-20T05:10:09.666Z,6.08
2019-02-20T05:12:37.914Z,6.09
2019-02-20T05:15:06.337Z,6.10
2019-02-20T05:17:34.726Z,6.11
2019-02-20T05:20:03.103Z,6.09
2019-02-20T05:22:31.402Z,6.08
2019-02-20T05:24:59.701Z,6.13
2019-02-20T05:27:28.001Z,6.13
2019-02-20T05:29:56.283Z,6.11
2019-02-20T05:32:24.570Z,6.12
2019-02-20T05:34:52.824Z,6.14
2019-02-20T05:37:21.119Z,6.14
2019-02-20T05:39:49.381Z,6.12
2019-02-20T05:42:17.673Z,6.12
2019-02-20T05:44:46.022Z,6.12
2019-02-20T05:47:14.305Z,6.12
2019-02-20T05:49:42.553Z,6.11
2019-02-20T05:52:10.841Z,6.12
2019-02-20T05:54:39.120Z,6.17
2019-02-20T05:57:07.506Z,6.17
2019-02-20T05:59:35.810Z,6.15
2019-02-20T06:02:04.123Z,6.18
2019-02-20T06:04:32.386Z,6.12
2019-02-20T06:07:00.686Z,6.12
2019-02-20T06:09:30.807Z,6.14
2019-02-20T06:11:59.026Z,6.11
2019-02-20T06:14:27.305Z,6.08
2019-02-20T06:16:55.561Z,6.08
2019-02-20T06:19:23.898Z,6.10
2019-02-20T06:21:52.146Z,6.02
2019-02-20T06:24:20.399Z,5.99
2019-02-20T06:26:51.608Z,5.99
2019-02-20T06:29:19.862Z,6.07
2019-02-20T06:31:48.833Z,6.07
2019-02-20T06:34:17.140Z,6.06
2019-02-20T06:36:45.441Z,6.02
2019-02-20T06:39:13.703Z,6.02
2019-02-20T06:41:41.955Z,6.04
2019-02-20T06:44:10.232Z,6.01
2019-02-20T06:46:38.516Z,5.96
2019-02-20T06:49:06.829Z,5.96
2019-02-20T06:51:35.089Z,5.95
2019-02-20T06:54:03.343Z,5.85
2019-02-20T06:56:31.617Z,5.90
2019-02-20T06:58:59.916Z,5.84
2019-02-20T07:01:28.998Z,5.84
2019-02-20T07:03:57.435Z,5.80
2019-02-20T07:06:47.429Z,5.82
2019-02-20T07:09:30.348Z,5.79
2019-02-20T07:12:17.167Z,5.79
2019-02-20T07:14:48.735Z,5.78
2019-02-20T07:17:26.158Z,5.70
2019-02-20T07:20:15.984Z,5.78
2019-02-20T07:22:47.585Z,5.78
2019-02-20T07:25:21.878Z,5.75
2019-02-20T07:28:16.203Z,5.78
2019-02-20T07:30:44.489Z,5.78
2019-02-20T07:33:12.736Z,5.81
2019-02-20T07:35:41.040Z,5.81
2019-02-20T07:38:09.294Z,5.79
2019-02-20T07:40:37.546Z,5.82
2019-02-20T07:43:05.931Z,5.81
2019-02-20T07:45:34.183Z,5.87
2019-02-20T07:48:02.517Z,5.91
2019-02-20T07:50:31.099Z,5.91
2019-02-20T07:52:59.350Z,5.94
2019-02-20T07:55:30.430Z,5.94
2019-02-20T07:57:58.828Z,5.94
2019-02-20T08:00:27.091Z,5.96
2019-02-20T08:02:55.452Z,5.96
2019-02-20T08:05:23.837Z,6.01
2019-02-20T08:07:52.149Z,6.01
2019-02-20T08:10:20.466Z,6.04
2019-02-20T08:12:48.763Z,6.10
2019-02-20T08:15:17.015Z,6.10
2019-02-20T08:17:45.357Z,6.12
2019-02-20T08:20:13.613Z,6.16
2019-02-20T08:22:41.878Z,6.23
2019-02-20T08:25:10.203Z,6.36
2019-02-20T08:27:38.474Z,6.36
2019-02-20T08:30:10.279Z,6.39
2019-02-20T08:32:38.590Z,6.49
2019-02-20T08:35:08.681Z,6.54
2019-02-20T08:37:36.976Z,6.59
2019-02-20T08:40:11.029Z,6.64
2019-02-20T08:42:40.662Z,6.73
2019-02-20T08:45:10.377Z,6.80
2019-02-20T08:47:38.678Z,6.85
2019-02-20T08:50:09.366Z,6.89
2019-02-20T08:52:38.100Z,6.96
2019-02-20T08:55:08.805Z,7.01
2019-02-20T08:57:37.106Z,7.03
2019-02-20T09:00:11.061Z,7.08
2019-02-20T09:02:39.540Z,7.12
2019-02-20T09:05:09.723Z,7.18
2019-02-20T09:07:38.031Z,7.21
2019-02-20T09:10:09.689Z,7.26
2019-02-20T09:12:38.001Z,7.29
2019-02-20T09:15:08.903Z,7.30
2019-02-20T09:17:37.349Z,7.29
2019-02-20T09:20:08.331Z,7.33
2019-02-20T09:22:36.584Z,7.34
2019-02-20T09:25:07.839Z,7.36
2019-02-20T09:27:36.125Z,7.41
2019-02-20T09:30:07.071Z,7.44
2019-02-20T09:32:35.351Z,7.48
2019-02-20T09:35:05.475Z,7.55
2019-02-20T09:37:33.818Z,7.56
2019-02-20T09:40:02.116Z,7.62
2019-02-20T09:42:30.390Z,7.65
2019-02-20T09:44:58.650Z,7.71
2019-02-20T09:47:27.035Z,7.74
2019-02-20T09:49:55.277Z,7.77
2019-02-20T09:52:24.346Z,7.76
2019-02-20T09:54:52.645Z,7.81
2019-02-20T09:57:20.902Z,7.84
2019-02-20T09:59:49.212Z,7.90
2019-02-20T10:02:17.523Z,7.93
2019-02-20T10:04:45.809Z,7.97
2019-02-20T10:07:14.060Z,8.02
2019-02-20T10:09:42.380Z,8.04
2019-02-20T10:12:10.637Z,8.11
2019-02-20T10:14:40.339Z,8.17
2019-02-20T10:17:08.783Z,8.26
2019-02-20T10:19:37.164Z,8.35
2019-02-20T10:22:05.409Z,8.50
2019-02-20T10:24:33.666Z,8.57
2019-02-20T10:27:01.983Z,8.65
2019-02-20T10:29:30.406Z,8.72
2019-02-20T10:31:58.648Z,8.74
2019-02-20T10:34:26.940Z,8.78
2019-02-20T10:36:55.294Z,8.80
2019-02-20T10:39:23.528Z,8.84
2019-02-20T10:41:51.822Z,8.87
2019-02-20T10:44:20.131Z,8.95
2019-02-20T10:46:48.727Z,8.98
2019-02-20T10:49:17.013Z,9.02
2019-02-20T10:51:45.263Z,9.12
2019-02-20T10:54:13.566Z,9.22
2019-02-20T10:56:41.958Z,9.31
2019-02-20T10:59:10.206Z,9.40
2019-02-20T11:01:38.480Z,9.48
2019-02-20T11:04:06.793Z,9.50
2019-02-20T11:06:35.040Z,9.52
2019-02-20T11:09:04.965Z,9.55
2019-02-20T11:11:33.290Z,9.57
2019-02-20T11:14:01.605Z,9.66
2019-02-20T11:16:30.408Z,9.78
2019-02-20T11:18:58.654Z,9.87
2019-02-20T11:21:26.955Z,9.91
2019-02-20T11:23:55.210Z,9.93
2019-02-20T11:26:23.669Z,9.95
2019-02-20T11:28:51.962Z,9.95
2019-02-20T11:31:20.258Z,9.99
2019-02-20T11:33:48.506Z,10.00
2019-02-20T11:36:16.883Z,10.07
2019-02-20T11:38:45.129Z,10.16
2019-02-20T11:41:13.602Z,10.24
2019-02-20T11:43:41.852Z,10.32
2019-02-20T11:46:10.292Z,10.36
2019-02-20T11:48:38.543Z,10.42
2019-02-20T11:51:06.844Z,10.46
2019-02-20T11:53:37.113Z,10.50
2019-02-20T11:56:05.131Z,10.54
2019-02-20T11:58:33.415Z,10.58
2019-02-20T12:01:01.718Z,10.57
2019-02-20T12:03:30.103Z,10.60
2019-02-20T12:05:58.405Z,10.63
2019-02-20T12:08:26.666Z,10.62
2019-02-20T12:10:55.008Z,10.61
2019-02-20T12:13:23.262Z,10.60
2019-02-20T12:15:51.652Z,10.58
2019-02-20T12:18:19.909Z,10.57
2019-02-20T12:20:48.160Z,10.54
2019-02-20T12:23:16.576Z,10.56
2019-02-20T12:25:44.793Z,10.58
2019-02-20T12:28:13.054Z,10.62
2019-02-20T12:30:41.518Z,10.65
2019-02-20T12:33:10.704Z,10.66
2019-02-20T12:35:39.025Z,10.69
2019-02-20T12:38:08.203Z,10.74
2019-02-20T12:40:36.460Z,10.73
2019-02-20T12:43:04.837Z,10.75
2019-02-20T12:45:33.172Z,10.78
2019-02-20T12:48:01.427Z,10.82
2019-02-20T12:50:29.848Z,10.78
2019-02-20T12:52:58.095Z,10.78
2019-02-20T12:55:26.367Z,10.78
2019-02-20T12:57:54.681Z,10.79
2019-02-20T13:00:23.114Z,10.79
2019-02-20T13:02:51.372Z,10.84
2019-02-20T13:05:19.723Z,10.85
2019-02-20T13:07:48.088Z,10.90
2019-02-20T13:10:16.344Z,10.94
2019-02-20T13:12:44.597Z,10.99
2019-02-20T13:15:12.993Z,11.07
2019-02-20T13:17:41.249Z,11.13
2019-02-20T13:20:11.444Z,11.16
2019-02-20T13:22:40.173Z,11.22
2019-02-20T13:25:09.577Z,11.24
2019-02-20T13:27:40.025Z,11.26
2019-02-20T13:30:12.742Z,11.29
2019-02-20T13:32:41.045Z,11.31
2019-02-20T13:35:09.331Z,11.31
2019-02-20T13:37:37.634Z,11.33
2019-02-20T13:40:08.354Z,11.32
2019-02-20T13:42:36.645Z,11.32
2019-02-20T13:45:06.299Z,11.33
2019-02-20T13:47:34.551Z,11.38
2019-02-20T13:50:02.895Z,11.37
2019-02-20T13:52:31.173Z,11.38
2019-02-20T13:54:59.941Z,11.38
2019-02-20T13:57:28.230Z,11.38
2019-02-20T13:59:56.487Z,11.39
2019-02-20T14:02:24.794Z,11.41
2019-02-20T14:04:53.127Z,11.41
2019-02-20T14:07:21.374Z,11.42
2019-02-20T14:09:49.627Z,11.44
2019-02-20T14:12:18.792Z,11.48
2019-02-20T14:14:47.110Z,11.48
2019-02-20T14:17:15.717Z,11.52
2019-02-20T14:19:43.972Z,11.57
2019-02-20T14:22:12.255Z,11.58
2019-02-20T14:24:40.563Z,11.56
2019-02-20T14:27:11.122Z,11.50
2019-02-20T14:29:38.962Z,11.39
2019-02-20T14:32:07.213Z,11.34
2019-02-20T14:34:35.490Z,11.34
2019-02-20T14:37:03.776Z,11.27
2019-02-20T14:39:32.054Z,11.25
2019-02-20T14:42:01.010Z,11.23
2019-02-20T14:44:29.444Z,11.24
2019-02-20T14:46:57.724Z,11.18
2019-02-20T14:49:25.948Z,11.18
2019-02-20T14:51:54.330Z,11.19
2019-02-20T14:54:22.601Z,11.19
2019-02-20T14:56:50.904Z,11.19
2019-02-20T14:59:19.201Z,11.17
2019-02-20T15:01:47.502Z,11.20
2019-02-20T15:04:15.781Z,11.21
2019-02-20T15:06:44.091Z,11.22
2019-02-20T15:09:12.346Z,11.24
2019-02-20T15:11:40.598Z,11.23
2019-02-20T15:14:08.959Z,11.24
2019-02-20T15:16:37.213Z,11.25
2019-02-20T15:19:06.324Z,11.26
2019-02-20T15:21:34.751Z,11.23
2019-02-20T15:24:03.002Z,11.25
2019-02-20T15:26:31.263Z,11.25
2019-02-20T15:28:59.643Z,11.25
2019-02-20T15:31:33.768Z,11.22
2019-02-20T15:33:57.886Z,11.20
2019-02-20T15:36:26.559Z,11.20
2019-02-20T15:38:54.823Z,11.18
2019-02-20T15:41:23.078Z,11.18
2019-02-20T15:43:51.621Z,11.15
2019-02-20T15:46:19.950Z,11.14
2019-02-20T15:48:48.230Z,11.13
2019-02-20T15:51:16.486Z,11.14
2019-02-20T15:53:44.845Z,11.12
2019-02-20T15:56:13.101Z,11.12
2019-02-20T15:58:41.396Z,11.08
2019-02-20T16:01:11.529Z,11.09
2019-02-20T16:03:39.716Z,11.09
2019-02-20T16:06:07.978Z,11.06
2019-02-20T16:08:36.267Z,11.05
2019-02-20T16:11:04.532Z,10.99
2019-02-20T16:13:32.796Z,10.97
2019-02-20T16:16:01.073Z,10.95
2019-02-20T16:18:29.326Z,10.95
2019-02-20T16:20:57.909Z,10.96
2019-02-20T16:23:26.154Z,10.93
2019-02-20T16:25:54.411Z,10.94
2019-02-20T16:28:25.392Z,10.93
2019-02-20T16:30:52.876Z,10.88
2019-02-20T16:33:21.135Z,10.84
2019-02-20T16:35:49.389Z,10.82
2019-02-20T16:38:17.733Z,10.82
2019-02-20T16:40:45.990Z,10.79
2019-02-20T16:43:14.728Z,10.78
2019-02-20T16:45:42.993Z,10.75
2019-02-20T16:48:11.297Z,10.74
2019-02-20T16:50:39.596Z,10.68
2019-02-20T16:53:07.850Z,10.66
2019-02-20T16:55:36.117Z,10.67
2019-02-20T16:58:04.399Z,10.66
2019-02-20T17:00:33.706Z,10.66
2019-02-20T17:03:02.451Z,10.64
2019-02-20T17:05:30.713Z,10.62
2019-02-20T17:07:58.973Z,10.59
2019-02-20T17:10:27.308Z,10.55
2019-02-20T17:12:55.611Z,10.51
2019-02-20T17:15:23.860Z,10.48
2019-02-20T17:17:53.085Z,10.47
2019-02-20T17:20:21.727Z,10.43
2019-02-20T17:22:50.165Z,10.38
2019-02-20T17:25:19.386Z,10.36
2019-02-20T17:27:47.644Z,10.37
2019-02-20T17:30:17.165Z,10.34
2019-02-20T17:32:45.799Z,10.31
2019-02-20T17:35:14.632Z,10.32
2019-02-20T17:37:42.891Z,10.29
2019-02-20T17:40:11.991Z,10.24
2019-02-20T17:42:40.276Z,10.23
2019-02-20T17:45:11.263Z,10.23
2019-02-20T17:47:39.580Z,10.21
2019-02-20T17:50:10.898Z,10.20
2019-02-20T17:52:39.162Z,10.18
2019-02-20T17:55:09.118Z,10.18
2019-02-20T17:57:37.370Z,10.16
2019-02-20T18:00:09.097Z,10.15
2019-02-20T18:02:37.494Z,10.11
2019-02-20T18:05:06.518Z,10.10
2019-02-20T18:07:34.827Z,10.09
2019-02-20T18:10:04.504Z,10.08
2019-02-20T18:12:33.321Z,10.05
2019-02-20T18:15:01.685Z,10.03
2019-02-20T18:17:29.985Z,9.99
2019-02-20T18:19:58.224Z,9.98
2019-02-20T18:22:26.506Z,9.95
2019-02-20T18:24:54.757Z,9.93
2019-02-20T18:27:23.074Z,9.87
2019-02-20T18:29:51.357Z,9.83
2019-02-20T18:32:19.630Z,9.81
2019-02-20T18:34:48.018Z,9.80
2019-02-20T18:37:16.291Z,9.79
2019-02-20T18:39:44.545Z,9.74
2019-02-20T18:42:12.892Z,9.74
2019-02-20T18:44:41.259Z,9.73
2019-02-20T18:47:09.582Z,9.72
2019-02-20T18:49:39.015Z,9.72
2019-02-20T18:52:07.620Z,9.71
2019-02-20T18:54:35.902Z,9.68
2019-02-20T18:57:04.292Z,9.66
2019-02-20T18:59:32.542Z,9.64
2019-02-20T19:02:00.800Z,9.61
2019-02-20T19:04:29.102Z,9.59
2019-02-20T19:06:57.362Z,9.55
2019-02-20T19:09:25.633Z,9.55
2019-02-20T19:12:03.136Z,9.53
2019-02-20T19:14:34.735Z,9.52
2019-02-20T19:17:26.010Z,9.51
2019-02-20T19:20:23.204Z,9.47
2019-02-20T19:22:57.268Z,9.43
2019-02-20T19:25:46.807Z,9.40
2019-02-20T19:28:21.325Z,9.38
2019-02-20T19:31:14.800Z,9.36
2019-02-20T19:33:49.410Z,9.34
2019-02-20T19:36:40.459Z,9.29
2019-02-20T19:39:24.152Z,9.27
2019-02-20T19:41:55.654Z,9.23
2019-02-20T19:44:54.714Z,9.21
2019-02-20T19:47:42.807Z,9.16
2019-02-20T19:50:29.335Z,9.11
2019-02-20T19:53:15.411Z,9.08
2019-02-20T19:56:18.838Z,9.08
2019-02-20T19:59:05.515Z,9.07
2019-02-20T20:01:37.206Z,9.05
2019-02-20T20:04:14.416Z,9.02
2019-02-20T20:06:57.952Z,8.99
2019-02-20T20:09:35.930Z,8.97
2019-02-20T20:12:40.505Z,8.97
2019-02-20T20:15:36.431Z,8.97
2019-02-20T20:18:43.986Z,8.97
2019-02-20T20:21:31.895Z,8.96
2019-02-20T20:24:22.602Z,8.95
2019-02-20T20:27:02.396Z,8.91
2019-02-20T20:29:39.902Z,8.91
2019-02-20T20:32:32.703Z,8.88
2019-02-20T20:35:16.485Z,8.86
2019-02-20T20:37:47.986Z,8.87
2019-02-20T20:40:28.256Z,8.86
2019-02-20T20:42:59.813Z,8.88
2019-02-20T20:45:50.764Z,8.88
2019-02-20T20:48:34.313Z,8.88
2019-02-20T20:51:34.550Z,8.87
2019-02-20T20:54:26.528Z,8.87
2019-02-20T20:57:20.286Z,8.85
2019-02-20T21:00:08.232Z,8.82
2019-02-20T21:02:39.961Z,8.78
2019-02-20T21:05:16.946Z,8.78
2019-02-20T21:07:50.963Z,8.75
2019-02-20T21:10:39.720Z,8.76
2019-02-20T21:13:16.960Z,8.74
2019-02-20T21:15:48.497Z,8.72
2019-02-20T21:18:28.774Z,8.72
2019-02-20T21:21:09.239Z,8.70
2019-02-20T21:23:46.457Z,8.69
2019-02-20T21:26:30.030Z,8.69
2019-02-20T21:29:10.601Z,8.69
2019-02-20T21:31:53.598Z,8.68
2019-02-20T21:34:39.769Z,8.68
2019-02-20T21:37:25.578Z,8.67
2019-02-20T21:39:59.739Z,8.66
2019-02-20T21:42:31.268Z,8.65
2019-02-20T21:45:17.896Z,8.64
2019-02-20T21:48:01.360Z,8.62
2019-02-20T21:50:41.936Z,8.61
2019-02-20T21:53:22.213Z,8.61
2019-02-20T21:56:14.912Z,8.57
2019-02-20T21:59:07.534Z,8.57
2019-02-20T22:01:39.142Z,8.53
2019-02-20T22:04:16.550Z,8.52
2019-02-20T22:07:22.928Z,8.50
2019-02-20T22:10:09.597Z,8.48
2019-02-20T22:12:53.228Z,8.47
2019-02-20T22:15:46.983Z,8.48
2019-02-20T22:18:53.479Z,8.45
2019-02-20T22:21:49.140Z,8.42
2019-02-20T22:24:32.407Z,8.41
2019-02-20T22:27:20.804Z,8.40
2019-02-20T22:30:18.278Z,8.38
2019-02-20T22:32:49.814Z,8.38
2019-02-20T22:35:30.289Z,8.36
2019-02-20T22:38:15.049Z,8.35
2019-02-20T22:41:04.789Z,8.33
2019-02-20T22:43:36.355Z,8.30
2019-02-20T22:46:08.031Z,8.28
2019-02-20T22:49:11.639Z,8.29
2019-02-20T22:51:46.290Z,8.30
2019-02-20T22:54:32.893Z,8.27
2019-02-20T22:57:22.673Z,8.24
2019-02-20T23:00:08.974Z,8.18
2019-02-20T23:03:04.883Z,8.15
2019-02-20T23:05:54.276Z,8.10
2019-02-20T23:08:29.004Z,8.08
2019-02-20T23:11:19.055Z,8.00
2019-02-20T23:13:53.162Z,7.99
2019-02-20T23:16:21.474Z,7.98
2019-02-20T23:18:49.731Z,7.95
2019-02-20T23:21:18.126Z,7.95
2019-02-20T23:23:46.433Z,7.96
2019-02-20T23:26:14.727Z,7.94
2019-02-20T23:28:43.036Z,7.95
2019-02-20T23:31:11.314Z,7.96
2019-02-20T23:33:39.599Z,7.95
2019-02-20T23:36:07.868Z,7.94
2019-02-20T23:38:36.144Z,7.94
2019-02-20T23:41:04.452Z,7.99
2019-02-20T23:43:32.864Z,7.99
2019-02-20T23:46:01.157Z,8.00
2019-02-20T23:48:29.435Z,8.00
2019-02-20T23:50:57.865Z,8.00
2019-02-20T23:53:26.114Z,8.01
2019-02-20T23:55:54.362Z,8.01
2019-02-20T23:58:22.799Z,8.04
